Time;durP1;ratioP1;P1;durP2;ratioP2;P2;SDS_P1;SDS_P2;PMS_P1;PMS_P2;Temp;Humidity;BMP_temperature;BMP_pressure;BME280_temperature;BME280_humidity;BME280_pressure;Samples;Min_cycle;Max_cycle;Signal;HPM_P1;HPM_P2
2021/01/18 00:01:35;;;;;;;7.28;4.75;;;1.70;99.90;;;;;;5022479;28;20625;-72
2021/01/18 00:04:02;;;;;;;4.22;3.75;;;1.70;99.90;;;;;;5022864;28;20209;-72
2021/01/18 00:06:28;;;;;;;5.03;4.20;;;1.70;99.90;;;;;;5023678;28;20273;-72
2021/01/18 00:08:55;;;;;;;4.57;4.03;;;1.70;99.90;;;;;;5021926;28;20214;-72
2021/01/18 00:11:22;;;;;;;5.00;4.15;;;1.70;99.90;;;;;;5021399;28;20233;-71
2021/01/18 00:13:50;;;;;;;6.70;4.45;;;1.80;99.90;;;;;;5026716;28;20583;-71
2021/01/18 00:16:17;;;;;;;5.90;4.68;;;1.80;99.90;;;;;;5025389;28;20198;-72
2021/01/18 00:18:44;;;;;;;4.90;4.03;;;1.80;99.90;;;;;;5026255;28;20264;-72
2021/01/18 00:21:10;;;;;;;4.28;3.78;;;1.80;99.90;;;;;;5026483;28;20570;-72
2021/01/18 00:23:37;;;;;;;6.03;4.25;;;1.80;99.90;;;;;;5026227;28;20256;-72
2021/01/18 00:26:04;;;;;;;5.93;4.60;;;1.70;99.90;;;;;;5026141;28;20244;-72
2021/01/18 00:28:32;;;;;;;8.10;3.95;;;1.80;99.90;;;;;;5026258;28;20197;-72
2021/01/18 00:30:58;;;;;;;5.75;4.32;;;1.70;99.90;;;;;;5025793;28;20257;-72
2021/01/18 00:33:24;;;;;;;8.02;4.13;;;1.70;99.90;;;;;;5025702;28;20205;-72
2021/01/18 00:35:51;;;;;;;5.50;4.05;;;1.80;99.90;;;;;;5026565;28;20224;-72
2021/01/18 00:38:17;;;;;;;4.88;4.38;;;1.80;99.90;;;;;;5088888;22;20247;-91
2021/01/18 00:40:44;;;;;;;4.15;3.75;;;1.80;99.90;;;;;;5078528;28;20256;-91
2021/01/18 00:43:11;;;;;;;5.47;4.18;;;1.70;99.90;;;;;;5079786;28;20204;-91
2021/01/18 00:45:37;;;;;;;5.55;4.22;;;1.80;99.90;;;;;;5085896;28;20212;-91
2021/01/18 00:48:04;;;;;;;5.28;3.97;;;1.80;99.90;;;;;;5088671;28;20220;-92
2021/01/18 00:50:31;;;;;;;5.82;3.88;;;1.70;99.90;;;;;;5084564;28;20228;-93
2021/01/18 00:52:59;;;;;;;5.75;3.90;;;1.60;99.90;;;;;;5076266;28;20210;-93
2021/01/18 00:55:26;;;;;;;8.93;3.80;;;1.60;99.90;;;;;;5075343;28;20683;-93
2021/01/18 00:57:53;;;;;;;3.85;3.45;;;1.60;99.90;;;;;;5074255;28;20247;-92
2021/01/18 01:00:22;;;;;;;4.75;4.25;;;1.50;99.90;;;;;;5073222;28;20228;-93
2021/01/18 01:02:49;;;;;;;5.82;3.85;;;1.50;99.90;;;;;;5074273;28;20587;-91
2021/01/18 01:05:19;;;;;;;6.20;4.30;;;1.40;99.90;;;;;;5074832;28;20218;-92
2021/01/18 01:07:47;;;;;;;4.82;3.88;;;1.40;99.90;;;;;;5074247;28;20627;-92
2021/01/18 01:10:15;;;;;;;5.45;3.75;;;1.30;99.90;;;;;;5072993;28;20716;-91
2021/01/18 01:12:42;;;;;;;4.70;4.18;;;1.30;99.90;;;;;;5073985;28;20208;-93
2021/01/18 01:15:09;;;;;;;6.30;4.10;;;1.30;99.90;;;;;;5074555;28;20302;-90
2021/01/18 01:17:44;;;;;;;6.75;3.47;;;1.30;99.90;;;;;;5073563;28;20232;-92
2021/01/18 01:20:12;;;;;;;5.35;4.50;;;1.20;99.90;;;;;;5063675;28;20696;-93
2021/01/18 01:22:39;;;;;;;5.22;4.57;;;1.20;99.90;;;;;;5072548;28;20204;-92
2021/01/18 01:25:09;;;;;;;5.45;4.13;;;1.20;99.90;;;;;;5075739;28;20706;-92
2021/01/18 01:27:50;;;;;;;4.47;4.07;;;1.20;99.90;;;;;;5073140;28;20254;-92
2021/01/18 01:30:19;;;;;;;4.68;4.15;;;1.10;99.90;;;;;;5072421;28;20282;-92
2021/01/18 01:32:49;;;;;;;8.60;4.95;;;1.10;99.90;;;;;;5064876;28;20287;-92
2021/01/18 01:35:17;;;;;;;6.38;4.90;;;1.10;99.90;;;;;;5074005;28;20736;-91
2021/01/18 01:37:43;;;;;;;5.90;4.30;;;1.20;99.90;;;;;;5073921;28;20236;-93
2021/01/18 01:40:13;;;;;;;9.82;3.95;;;1.20;99.90;;;;;;5073104;28;20211;-93
2021/01/18 01:42:39;;;;;;;5.38;4.30;;;1.20;99.90;;;;;;5073605;28;20212;-91
2021/01/18 01:45:08;;;;;;;5.55;3.80;;;1.30;99.90;;;;;;5073036;28;20200;-93
2021/01/18 01:47:37;;;;;;;6.40;4.45;;;1.20;99.90;;;;;;5077096;28;20229;-93
2021/01/18 01:50:08;;;;;;;4.40;4.00;;;1.20;99.90;;;;;;5080165;28;20307;-94
2021/01/18 01:52:37;;;;;;;5.13;4.53;;;1.30;99.90;;;;;;5073549;28;20212;-94
2021/01/18 01:55:10;;;;;;;5.78;4.15;;;1.30;99.90;;;;;;5073708;28;20589;-92
2021/01/18 01:57:37;;;;;;;4.78;4.10;;;1.30;99.90;;;;;;5073930;28;20221;-93
2021/01/18 02:00:05;;;;;;;5.80;4.60;;;1.20;99.90;;;;;;5073165;28;20196;-93
2021/01/18 02:02:32;;;;;;;5.65;4.30;;;1.30;99.90;;;;;;5074061;28;20211;-93
2021/01/18 02:04:59;;;;;;;5.53;4.95;;;1.30;99.90;;;;;;5073924;28;20210;-91
2021/01/18 02:07:27;;;;;;;5.55;4.03;;;1.30;99.90;;;;;;5070350;28;20235;-92
2021/01/18 02:09:55;;;;;;;4.90;4.40;;;1.30;99.90;;;;;;5071570;28;20271;-93
2021/01/18 02:12:22;;;;;;;4.65;4.18;;;1.40;99.90;;;;;;5072243;28;20210;-93
2021/01/18 02:15:08;;;;;;;4.78;3.88;;;1.40;99.90;;;;;;5070388;28;20208;-91
2021/01/18 02:17:43;;;;;;;5.43;4.35;;;1.40;99.90;;;;;;5070223;28;20289;-93
2021/01/18 02:20:41;;;;;;;6.80;4.05;;;1.40;99.90;;;;;;5071728;28;20208;-93
2021/01/18 02:23:44;;;;;;;5.05;3.95;;;1.40;99.90;;;;;;5071446;28;20244;-93
2021/01/18 02:26:19;;;;;;;4.35;3.88;;;1.40;99.90;;;;;;5071118;28;20210;-93
2021/01/18 02:29:04;;;;;;;4.30;4.00;;;1.40;99.90;;;;;;5071367;28;20688;-92
2021/01/18 02:31:50;;;;;;;5.22;3.65;;;1.30;99.90;;;;;;5071255;28;20720;-93
2021/01/18 02:34:40;;;;;;;4.30;3.90;;;1.40;99.90;;;;;;5072549;28;20212;-93
2021/01/18 02:37:57;;;;;;;5.40;4.00;;;1.40;99.90;;;;;;5071262;28;20720;-92
2021/01/18 02:40:29;;;;;;;4.57;3.95;;;1.30;99.90;;;;;;4989838;28;20200;-93
2021/01/18 02:43:02;;;;;;;4.30;3.90;;;1.30;99.90;;;;;;4990379;28;20207;-93
2021/01/18 02:45:29;;;;;;;3.88;3.47;;;1.30;99.90;;;;;;5043077;28;20200;-94
2021/01/18 02:47:55;;;;;;;5.00;3.67;;;1.30;99.90;;;;;;5072126;28;20220;-94
2021/01/18 02:50:22;;;;;;;3.97;3.33;;;1.40;99.90;;;;;;5072520;28;20311;-93
2021/01/18 02:52:49;;;;;;;8.27;4.20;;;1.50;99.90;;;;;;5071931;28;20204;-93
2021/01/18 02:55:17;;;;;;;4.82;4.05;;;1.50;99.90;;;;;;5071857;28;20270;-93
2021/01/18 02:57:47;;;;;;;4.78;3.78;;;1.50;99.90;;;;;;5075673;28;20221;-92
2021/01/18 03:00:16;;;;;;;4.80;3.75;;;1.50;99.90;;;;;;5074925;28;20294;-93
2021/01/18 03:02:47;;;;;;;4.65;3.80;;;1.50;99.90;;;;;;5075180;28;20208;-91
2021/01/18 03:05:29;;;;;;;4.57;3.85;;;1.50;99.90;;;;;;5075274;28;20269;-93
2021/01/18 03:08:02;;;;;;;4.78;3.75;;;1.50;99.90;;;;;;5075397;28;20239;-92
2021/01/18 03:10:35;;;;;;;6.70;4.20;;;1.50;99.90;;;;;;5074963;28;20231;-91
2021/01/18 03:13:05;;;;;;;5.40;3.97;;;1.50;99.90;;;;;;5075047;28;20204;-92
2021/01/18 03:15:40;;;;;;;4.93;4.38;;;1.60;99.90;;;;;;5075070;28;20201;-92
2021/01/18 03:18:09;;;;;;;8.43;4.32;;;1.60;99.90;;;;;;5074829;28;20235;-91
2021/01/18 03:20:37;;;;;;;9.93;4.88;;;1.60;99.90;;;;;;5074487;28;20207;-92
2021/01/18 03:23:06;;;;;;;5.75;4.80;;;1.60;99.90;;;;;;5074610;28;20204;-92
2021/01/18 03:25:49;;;;;;;6.03;4.70;;;1.60;99.90;;;;;;5075658;28;20205;-92
2021/01/18 03:28:16;;;;;;;7.53;4.63;;;1.60;99.90;;;;;;5097785;28;20242;-93
2021/01/18 03:30:42;;;;;;;9.00;5.07;;;1.60;99.90;;;;;;5096012;28;20230;-92
2021/01/18 03:33:08;;;;;;;7.95;5.10;;;1.60;99.90;;;;;;5075557;28;20730;-92
2021/01/18 03:35:35;;;;;;;5.53;4.90;;;1.60;99.90;;;;;;5075264;28;20276;-92
2021/01/18 03:38:01;;;;;;;6.07;5.05;;;1.60;99.90;;;;;;5074957;28;20236;-92
2021/01/18 03:40:28;;;;;;;6.25;4.90;;;1.60;99.90;;;;;;5075016;28;20205;-92
2021/01/18 03:42:57;;;;;;;8.75;5.53;;;1.70;99.90;;;;;;5075189;28;20200;-92
2021/01/18 03:45:24;;;;;;;6.20;4.78;;;1.70;99.90;;;;;;5075182;28;20261;-92
2021/01/18 03:47:50;;;;;;;6.60;5.18;;;1.70;99.90;;;;;;5074405;28;20219;-92
2021/01/18 03:50:17;;;;;;;9.05;5.82;;;1.60;99.90;;;;;;5074279;28;20693;-91
2021/01/18 03:52:46;;;;;;;7.72;5.82;;;1.60;99.90;;;;;;5074361;28;20213;-92
2021/01/18 03:55:13;;;;;;;7.68;6.05;;;1.60;99.90;;;;;;5074725;28;20208;-92
2021/01/18 03:57:39;;;;;;;9.13;5.97;;;1.60;99.90;;;;;;5074768;28;20224;-92
2021/01/18 04:00:09;;;;;;;8.25;5.40;;;1.60;99.90;;;;;;5074160;28;20223;-91
2021/01/18 04:02:35;;;;;;;7.72;5.30;;;1.50;99.90;;;;;;5075341;28;20269;-92
2021/01/18 04:05:02;;;;;;;7.10;5.75;;;1.50;99.90;;;;;;5076706;28;20201;-93
2021/01/18 04:07:28;;;;;;;7.22;6.20;;;1.50;99.90;;;;;;5077268;28;20216;-92
2021/01/18 04:09:54;;;;;;;8.50;6.05;;;1.50;99.90;;;;;;5077170;28;20209;-92
2021/01/18 04:12:21;;;;;;;9.25;5.70;;;1.60;99.90;;;;;;5076800;28;20573;-93
2021/01/18 04:14:48;;;;;;;7.13;6.03;;;1.50;99.90;;;;;;5077033;28;20622;-92
2021/01/18 04:17:15;;;;;;;7.35;5.40;;;1.50;99.90;;;;;;5076923;28;20223;-91
2021/01/18 04:19:42;;;;;;;8.60;5.63;;;1.40;99.90;;;;;;5077153;28;20209;-91
2021/01/18 04:22:08;;;;;;;8.85;6.35;;;1.40;99.90;;;;;;5079102;28;20204;-92
2021/01/18 04:24:34;;;;;;;12.25;6.10;;;1.30;99.90;;;;;;5085492;28;20205;-92
2021/01/18 04:27:01;;;;;;;8.57;5.22;;;1.40;99.90;;;;;;5079592;28;20311;-92
2021/01/18 04:29:28;;;;;;;9.30;6.03;;;1.30;99.90;;;;;;5078872;28;20209;-93
2021/01/18 04:31:54;;;;;;;13.15;5.50;;;1.30;99.90;;;;;;5076804;28;20229;-92
2021/01/18 04:34:21;;;;;;;6.63;5.35;;;1.20;99.90;;;;;;5077083;28;20760;-91
2021/01/18 04:36:48;;;;;;;9.43;5.50;;;1.20;99.90;;;;;;5077894;28;20240;-92
2021/01/18 04:39:15;;;;;;;9.70;5.97;;;1.20;99.90;;;;;;5076931;28;20581;-91
2021/01/18 04:41:44;;;;;;;11.77;6.20;;;1.20;99.90;;;;;;5076166;28;20204;-90
2021/01/18 04:44:12;;;;;;;10.10;6.00;;;1.10;99.90;;;;;;5093698;28;20183;-92
2021/01/18 04:46:41;;;;;;;8.98;5.70;;;1.10;99.90;;;;;;5092082;28;20204;-92
2021/01/18 04:49:07;;;;;;;6.20;5.32;;;1.10;99.90;;;;;;5078240;28;20212;-92
2021/01/18 04:51:42;;;;;;;12.65;6.03;;;1.00;99.90;;;;;;5077415;28;20269;-93
2021/01/18 04:54:13;;;;;;;7.05;5.60;;;1.00;99.90;;;;;;5080475;28;20279;-91
2021/01/18 04:57:09;;;;;;;10.20;6.93;;;0.90;99.90;;;;;;5078422;28;20209;-93
2021/01/18 04:59:46;;;;;;;16.20;5.75;;;0.90;99.90;;;;;;5079264;28;20250;-92
2021/01/18 05:02:17;;;;;;;8.02;5.38;;;0.90;99.90;;;;;;5075195;28;20242;-92
2021/01/18 05:04:45;;;;;;;8.55;5.53;;;0.80;99.90;;;;;;5075269;28;20204;-90
2021/01/18 05:07:48;;;;;;;12.88;6.22;;;0.90;99.90;;;;;;5074378;28;20235;-91
2021/01/18 05:10:26;;;;;;;7.32;4.95;;;0.80;99.90;;;;;;5076887;28;20680;-92
2021/01/18 05:12:57;;;;;;;9.57;5.13;;;0.80;99.90;;;;;;5074911;28;20685;-91
2021/01/18 05:15:25;;;;;;;9.65;5.05;;;0.80;99.90;;;;;;5076252;28;20200;-92
2021/01/18 05:17:59;;;;;;;8.57;4.80;;;0.80;99.90;;;;;;5071765;28;20226;-92
2021/01/18 05:21:13;;;;;;;6.80;5.15;;;0.70;99.90;;;;;;5070530;28;20197;-96
2021/01/18 05:27:24;;;;;;;9.02;5.05;;;0.70;99.90;;;;;;5074177;28;20221;-92
2021/01/18 05:29:56;;;;;;;8.10;4.88;;;0.60;99.90;;;;;;5078889;22;20285;-74
2021/01/18 05:32:24;;;;;;;6.47;4.43;;;0.60;99.90;;;;;;5068791;28;20196;-74
2021/01/18 05:34:51;;;;;;;8.65;5.70;;;0.60;99.90;;;;;;5069623;28;20228;-75
2021/01/18 05:37:17;;;;;;;9.15;5.95;;;0.50;99.90;;;;;;5069559;28;20201;-74
2021/01/18 05:39:44;;;;;;;8.35;5.65;;;0.50;99.90;;;;;;5069720;28;20205;-76
2021/01/18 05:42:20;;;;;;;8.70;5.38;;;0.50;99.90;;;;;;5069060;28;20192;-75
2021/01/18 05:44:47;;;;;;;9.00;6.10;;;0.40;99.90;;;;;;5069715;28;20224;-75
2021/01/18 05:47:15;;;;;;;7.30;5.65;;;0.30;99.90;;;;;;5069779;28;20277;-75
2021/01/18 05:49:42;;;;;;;8.48;5.20;;;0.30;99.90;;;;;;5069816;28;20208;-75
2021/01/18 05:52:26;;;;;;;6.85;5.50;;;0.30;99.90;;;;;;5068645;28;20224;-75
2021/01/18 05:55:14;;;;;;;12.68;6.07;;;0.30;99.90;;;;;;5069189;28;20221;-75
2021/01/18 05:57:44;;;;;;;9.35;5.28;;;0.20;99.90;;;;;;5069659;28;20208;-76
2021/01/18 06:00:11;;;;;;;8.15;5.75;;;0.20;99.90;;;;;;5069094;28;20204;-75
2021/01/18 06:02:46;;;;;;;8.18;5.60;;;0.10;99.90;;;;;;5068826;28;20219;-74
2021/01/18 06:05:13;;;;;;;6.25;5.43;;;0.00;99.90;;;;;;5069626;28;20227;-75
2021/01/18 06:07:40;;;;;;;6.43;5.38;;;0.00;99.90;;;;;;5070247;28;20207;-74
2021/01/18 06:10:07;;;;;;;9.13;5.53;;;-0.10;99.90;;;;;;5067813;28;20207;-75
2021/01/18 06:12:36;;;;;;;11.65;6.57;;;-0.10;99.90;;;;;;5068776;28;20208;-74
2021/01/18 06:15:05;;;;;;;7.80;6.35;;;-0.10;99.90;;;;;;5068736;28;20708;-73
2021/01/18 06:17:32;;;;;;;7.63;5.90;;;-0.10;99.90;;;;;;5067186;28;20247;-75
2021/01/18 06:20:00;;;;;;;5.93;5.28;;;-0.10;99.90;;;;;;5068932;28;20197;-75
2021/01/18 06:22:27;;;;;;;8.73;5.90;;;-0.10;99.90;;;;;;5068441;28;20204;-75
2021/01/18 06:24:55;;;;;;;8.68;5.43;;;0.00;99.90;;;;;;5069008;28;20263;-74
2021/01/18 06:27:31;;;;;;;7.53;5.30;;;-0.10;99.90;;;;;;5069088;28;20196;-74
2021/01/18 06:29:57;;;;;;;5.97;4.65;;;-0.10;99.90;;;;;;5068971;28;20220;-75
2021/01/18 06:32:29;;;;;;;7.03;4.90;;;-0.10;99.90;;;;;;5072577;28;20251;-73
2021/01/18 06:35:00;;;;;;;7.55;4.47;;;0.00;99.90;;;;;;5072811;28;20703;-75
2021/01/18 06:39:57;;;;;;;10.93;5.53;;;0.00;99.90;;;;;;5071104;28;20212;-70
2021/01/18 06:42:23;;;;;;;9.00;5.18;;;0.00;99.90;;;;;;5072095;28;20188;-71
2021/01/18 06:44:51;;;;;;;6.03;4.97;;;0.00;99.90;;;;;;5072828;28;21054;-71
2021/01/18 06:47:29;;;;;;;7.93;5.00;;;0.00;99.90;;;;;;5073021;28;20228;-71
2021/01/18 06:52:29;;;;;;;12.00;5.10;;;-0.10;99.90;;;;;;4955045;29;20293;-72
2021/01/18 06:55:00;;;;;;;8.10;4.72;;;-0.10;99.90;;;;;;4958234;28;20323;-72
2021/01/18 06:57:53;;;;;;;6.70;4.55;;;-0.20;99.90;;;;;;4957077;28;20209;-74
2021/01/18 07:00:19;;;;;;;8.88;5.55;;;-0.20;99.90;;;;;;4957399;28;20204;-72
2021/01/18 07:02:55;;;;;;;9.52;4.85;;;-0.10;99.90;;;;;;4956895;28;20230;-72
2021/01/18 07:05:46;;;;;;;9.02;5.18;;;-0.10;99.90;;;;;;4956547;28;20640;-72
2021/01/18 07:08:15;;;;;;;6.82;4.60;;;-0.10;99.90;;;;;;4957464;28;20227;-73
2021/01/18 07:10:44;;;;;;;4.40;3.72;;;-0.10;99.90;;;;;;4957288;28;20259;-73
2021/01/18 07:13:11;;;;;;;5.90;4.20;;;0.00;99.90;;;;;;4957394;28;20231;-73
2021/01/18 07:15:40;;;;;;;8.55;4.45;;;0.00;99.90;;;;;;4958217;28;20286;-73
2021/01/18 07:18:08;;;;;;;5.53;4.05;;;0.10;99.90;;;;;;4957169;28;20211;-73
2021/01/18 07:20:40;;;;;;;4.72;3.85;;;0.10;99.90;;;;;;4956919;28;20205;-73
2021/01/18 07:23:29;;;;;;;6.43;3.92;;;0.20;99.90;;;;;;4956482;28;20219;-73
2021/01/18 07:26:20;;;;;;;7.80;4.88;;;0.20;99.90;;;;;;4956258;28;20228;-73
2021/01/18 07:28:54;;;;;;;4.88;3.50;;;0.30;99.90;;;;;;4956791;28;20274;-73
2021/01/18 07:31:20;;;;;;;5.95;3.80;;;0.50;99.90;;;;;;4957525;28;20250;-73
2021/01/18 07:33:47;;;;;;;5.93;4.75;;;0.50;99.90;;;;;;4956984;28;20231;-73
2021/01/18 07:36:23;;;;;;;6.30;3.90;;;0.50;99.90;;;;;;4957909;28;20262;-72
2021/01/18 07:38:50;;;;;;;6.80;3.83;;;0.50;99.90;;;;;;4958086;28;20208;-74
2021/01/18 07:41:20;;;;;;;6.03;4.15;;;0.50;99.90;;;;;;4957242;28;20223;-73
2021/01/18 07:43:47;;;;;;;4.60;4.10;;;0.60;99.90;;;;;;4956851;28;20240;-72
2021/01/18 07:46:41;;;;;;;6.55;4.57;;;0.70;99.90;;;;;;4957929;28;20216;-73
2021/01/18 07:49:38;;;;;;;4.13;3.20;;;0.80;99.90;;;;;;4969036;28;20204;-73
2021/01/18 07:52:27;;;;;;;6.75;4.13;;;0.80;99.90;;;;;;4956248;28;20231;-72
2021/01/18 07:54:56;;;;;;;7.00;4.10;;;0.80;99.90;;;;;;4957061;28;20220;-72
2021/01/18 07:57:33;;;;;;;4.78;3.72;;;0.90;99.90;;;;;;4956686;28;20205;-73
2021/01/18 08:00:23;;;;;;;7.40;3.83;;;0.90;99.90;;;;;;4956716;28;20214;-72
2021/01/18 08:02:51;;;;;;;7.22;4.63;;;1.00;99.90;;;;;;4956315;28;20208;-72
2021/01/18 08:05:25;;;;;;;3.95;3.50;;;1.00;99.90;;;;;;4956587;28;20229;-73
2021/01/18 08:08:02;;;;;;;4.38;3.55;;;1.00;99.90;;;;;;4956315;28;20200;-73
2021/01/18 08:10:50;;;;;;;3.90;3.40;;;1.10;99.90;;;;;;4956286;28;20223;-72
2021/01/18 08:13:51;;;;;;;5.53;3.92;;;1.20;99.90;;;;;;4955961;28;20228;-72
2021/01/18 08:16:26;;;;;;;5.20;3.83;;;1.30;99.90;;;;;;4975781;28;20309;-74
2021/01/18 08:18:55;;;;;;;5.82;3.70;;;1.30;99.90;;;;;;4958903;28;20204;-73
2021/01/18 08:21:46;;;;;;;5.82;4.20;;;1.30;99.90;;;;;;4954063;28;20595;-74
2021/01/18 08:24:36;;;;;;;4.80;3.65;;;1.40;99.90;;;;;;4961550;28;20232;-74
2021/01/18 08:27:05;;;;;;;8.70;3.53;;;1.50;99.90;;;;;;4950406;28;20204;-74
2021/01/18 08:29:44;;;;;;;3.90;3.50;;;1.60;99.90;;;;;;5017536;28;20209;-74
2021/01/18 08:32:47;;;;;;;6.57;3.88;;;1.60;99.90;;;;;;4992726;28;20225;-73
2021/01/18 08:35:29;;;;;;;4.60;3.90;;;1.70;99.90;;;;;;4988330;28;20248;-73
2021/01/18 08:37:59;;;;;;;5.10;3.60;;;1.90;99.90;;;;;;4949622;28;20632;-73
2021/01/18 08:40:43;;;;;;;6.72;3.90;;;1.80;99.90;;;;;;4964745;28;20550;-72
2021/01/18 08:43:11;;;;;;;4.75;3.30;;;1.90;99.90;;;;;;4959959;28;20258;-73
2021/01/18 08:45:40;;;;;;;5.30;3.55;;;1.90;99.90;;;;;;4983524;28;20723;-72
2021/01/18 08:48:08;;;;;;;5.32;3.60;;;1.90;99.90;;;;;;4997183;28;20212;-73
2021/01/18 08:50:42;;;;;;;7.93;3.95;;;2.00;99.90;;;;;;4958586;28;20255;-73
2021/01/18 08:53:27;;;;;;;4.63;3.40;;;2.10;99.90;;;;;;5042495;28;20227;-74
2021/01/18 08:55:54;;;;;;;4.82;3.08;;;2.10;99.90;;;;;;5037922;28;20222;-73
2021/01/18 08:58:32;;;;;;;3.92;3.53;;;2.10;99.90;;;;;;5038130;28;20978;-73
2021/01/18 09:01:00;;;;;;;5.63;3.40;;;2.20;99.90;;;;;;5035890;28;20194;-73
2021/01/18 09:03:26;;;;;;;5.35;3.60;;;2.20;99.90;;;;;;5035328;28;20202;-73
2021/01/18 09:05:55;;;;;;;4.90;3.28;;;2.30;99.90;;;;;;5035909;28;20226;-72
2021/01/18 09:08:22;;;;;;;5.07;4.57;;;2.50;99.90;;;;;;5036362;28;20225;-73
2021/01/18 09:10:53;;;;;;;7.38;3.40;;;2.50;99.90;;;;;;4962693;28;20283;-74
2021/01/18 09:13:21;;;;;;;8.30;3.95;;;2.50;99.90;;;;;;4954744;28;20574;-74
2021/01/18 09:15:49;;;;;;;6.03;4.00;;;2.60;99.90;;;;;;4954713;28;20228;-74
2021/01/18 09:18:15;;;;;;;4.70;3.70;;;2.60;99.90;;;;;;4955132;28;20214;-74
2021/01/18 09:20:42;;;;;;;5.63;3.97;;;2.50;99.90;;;;;;4955099;28;20200;-74
2021/01/18 09:23:10;;;;;;;9.73;3.92;;;2.50;99.90;;;;;;4954684;28;20212;-73
2021/01/18 09:25:37;;;;;;;5.55;4.10;;;2.50;99.90;;;;;;4955766;28;20221;-73
2021/01/18 09:28:05;;;;;;;5.70;3.58;;;2.50;99.90;;;;;;4955954;28;20209;-74
2021/01/18 09:30:32;;;;;;;4.78;3.40;;;2.50;99.90;;;;;;5015882;28;20206;-74
2021/01/18 09:33:00;;;;;;;4.00;3.60;;;2.70;99.90;;;;;;5036537;28;20202;-73
2021/01/18 09:35:28;;;;;;;6.57;4.28;;;2.80;99.90;;;;;;5036369;28;20268;-74
2021/01/18 09:37:55;;;;;;;5.65;3.70;;;3.00;99.90;;;;;;5037718;28;20205;-74
2021/01/18 09:40:21;;;;;;;5.80;3.67;;;3.10;99.90;;;;;;5036955;28;20206;-74
2021/01/18 09:42:52;;;;;;;5.35;3.78;;;3.20;99.90;;;;;;5036310;28;20213;-74
2021/01/18 09:45:18;;;;;;;4.63;3.53;;;3.20;99.90;;;;;;5037124;28;20225;-73
2021/01/18 09:47:44;;;;;;;4.80;3.80;;;3.20;99.90;;;;;;5036880;28;20206;-72
2021/01/18 09:50:14;;;;;;;3.60;3.30;;;3.30;99.90;;;;;;5036572;28;20209;-74
2021/01/18 09:52:41;;;;;;;6.47;3.75;;;3.30;99.90;;;;;;5037762;28;20270;-72
2021/01/18 09:55:14;;;;;;;6.55;3.70;;;3.20;99.90;;;;;;5036364;28;20230;-74
2021/01/18 09:57:44;;;;;;;6.95;3.53;;;3.20;99.90;;;;;;5038226;28;20213;-72
2021/01/18 10:00:11;;;;;;;5.95;3.70;;;3.10;99.90;;;;;;5038101;28;20223;-72
2021/01/18 10:02:43;;;;;;;6.07;3.90;;;3.00;99.90;;;;;;5037618;28;20213;-72
2021/01/18 10:05:19;;;;;;;4.13;3.20;;;3.00;99.90;;;;;;5036432;28;20222;-73
2021/01/18 10:07:49;;;;;;;4.40;3.65;;;3.00;99.90;;;;;;5036227;28;20278;-72
2021/01/18 10:10:15;;;;;;;4.75;3.38;;;3.00;99.90;;;;;;5036358;28;20205;-72
2021/01/18 10:12:49;;;;;;;6.93;3.45;;;3.10;99.90;;;;;;5015032;28;20247;-73
2021/01/18 10:15:25;;;;;;;6.30;4.20;;;3.20;99.90;;;;;;4954577;28;20252;-73
2021/01/18 10:17:53;;;;;;;4.05;3.47;;;3.30;99.90;;;;;;4954677;28;20204;-72
2021/01/18 10:20:28;;;;;;;6.47;3.72;;;3.30;99.90;;;;;;4952716;28;20643;-72
2021/01/18 10:22:58;;;;;;;3.92;2.97;;;3.20;99.90;;;;;;4953964;28;20208;-73
2021/01/18 10:25:29;;;;;;;4.75;3.42;;;3.30;99.90;;;;;;4953951;28;20250;-73
2021/01/18 10:27:57;;;;;;;4.65;3.15;;;3.30;99.90;;;;;;4954619;28;20300;-72
2021/01/18 10:30:26;;;;;;;4.50;3.28;;;3.30;99.90;;;;;;5008792;28;20263;-73
2021/01/18 10:32:55;;;;;;;4.90;2.75;;;3.30;99.90;;;;;;5013343;28;20202;-73
2021/01/18 10:35:29;;;;;;;5.25;3.20;;;3.30;99.90;;;;;;4973542;28;20223;-72
2021/01/18 10:38:11;;;;;;;4.47;3.60;;;3.20;99.90;;;;;;4974370;28;20204;-72
2021/01/18 10:40:38;;;;;;;6.75;3.65;;;3.30;99.90;;;;;;4974430;28;20261;-72
2021/01/18 10:43:05;;;;;;;4.88;3.35;;;3.40;99.90;;;;;;4972631;28;20207;-72
2021/01/18 10:45:32;;;;;;;4.20;3.03;;;3.70;99.90;;;;;;4972817;28;20228;-74
2021/01/18 10:47:59;;;;;;;3.80;3.50;;;3.80;99.90;;;;;;4972843;28;20698;-74
2021/01/18 10:50:28;;;;;;;4.05;3.05;;;4.10;99.90;;;;;;4958371;28;20220;-73
2021/01/18 10:53:05;;;;;;;6.10;3.35;;;4.50;99.90;;;;;;4953199;28;20204;-74
2021/01/18 10:55:32;;;;;;;4.25;3.55;;;4.60;99.90;;;;;;4953857;28;20221;-72
2021/01/18 10:57:59;;;;;;;3.67;2.90;;;4.60;99.90;;;;;;4954220;28;20209;-74
2021/01/18 11:00:27;;;;;;;3.55;3.03;;;4.30;99.90;;;;;;4952543;28;20205;-74
2021/01/18 11:02:56;;;;;;;8.05;3.53;;;4.40;99.90;;;;;;4952891;28;20239;-74
2021/01/18 11:05:32;;;;;;;3.97;3.50;;;4.30;99.90;;;;;;4954176;28;20224;-72
2021/01/18 11:07:59;;;;;;;5.63;3.05;;;4.30;99.90;;;;;;4954890;28;20211;-72
2021/01/18 11:10:28;;;;;;;4.00;3.60;;;4.40;99.90;;;;;;4953326;28;20210;-73
2021/01/18 11:13:05;;;;;;;3.65;3.20;;;4.60;99.90;;;;;;4951781;28;20208;-73
2021/01/18 11:15:35;;;;;;;4.07;3.67;;;4.60;99.90;;;;;;4952674;28;20235;-73
2021/01/18 11:18:01;;;;;;;3.65;3.35;;;4.60;99.90;;;;;;4955532;28;20211;-73
2021/01/18 11:20:29;;;;;;;3.28;2.97;;;4.50;99.90;;;;;;4961917;28;20208;-72
2021/01/18 11:22:57;;;;;;;5.47;3.53;;;4.50;99.90;;;;;;4957745;28;20652;-72
2021/01/18 11:25:23;;;;;;;2.75;2.55;;;4.50;99.90;;;;;;4958570;28;20235;-73
2021/01/18 11:27:49;;;;;;;3.30;2.85;;;4.50;99.90;;;;;;4955782;28;20213;-72
2021/01/18 11:30:16;;;;;;;6.85;3.50;;;4.40;99.90;;;;;;5004857;28;20292;-73
2021/01/18 11:32:43;;;;;;;6.15;3.28;;;4.30;99.90;;;;;;5038606;28;20490;-72
2021/01/18 11:35:11;;;;;;;3.40;2.85;;;4.20;99.90;;;;;;5040020;28;20321;-72
2021/01/18 11:37:38;;;;;;;4.40;3.50;;;4.10;99.90;;;;;;5038266;28;20324;-73
2021/01/18 11:40:08;;;;;;;3.88;3.13;;;4.40;99.90;;;;;;5037168;28;20205;-73
2021/01/18 11:42:34;;;;;;;4.15;3.85;;;4.80;99.90;;;;;;5039240;28;20197;-73
2021/01/18 11:45:01;;;;;;;3.60;2.80;;;4.90;99.90;;;;;;5040044;28;20225;-73
2021/01/18 11:47:35;;;;;;;4.07;3.45;;;5.00;99.90;;;;;;5041552;28;20289;-73
2021/01/18 11:50:02;;;;;;;5.47;3.42;;;5.10;99.90;;;;;;5043680;28;20197;-73
2021/01/18 11:52:28;;;;;;;4.95;3.80;;;5.10;99.90;;;;;;5041353;28;20244;-73
2021/01/18 11:54:54;;;;;;;5.10;3.22;;;5.10;99.90;;;;;;5041477;28;20598;-73
2021/01/18 11:57:22;;;;;;;7.68;4.15;;;4.80;99.90;;;;;;5036864;28;20260;-73
2021/01/18 11:59:48;;;;;;;4.75;3.58;;;4.80;99.90;;;;;;5038234;28;20209;-72
2021/01/18 12:02:19;;;;;;;5.78;3.30;;;4.90;99.90;;;;;;5037812;28;20198;-73
2021/01/18 12:04:45;;;;;;;6.53;3.78;;;4.80;99.90;;;;;;5037633;28;20225;-73
2021/01/18 12:07:11;;;;;;;3.90;3.15;;;4.90;99.90;;;;;;5037731;28;20254;-72
2021/01/18 12:09:38;;;;;;;5.05;2.78;;;4.70;99.90;;;;;;5037553;28;20208;-74
2021/01/18 12:12:04;;;;;;;4.40;3.40;;;4.70;99.90;;;;;;5037778;28;20222;-73
2021/01/18 12:14:31;;;;;;;6.03;3.10;;;4.70;99.90;;;;;;5037982;28;20221;-73
2021/01/18 12:17:01;;;;;;;3.47;3.08;;;4.70;99.90;;;;;;4992166;28;20608;-73
2021/01/18 12:19:27;;;;;;;4.60;3.33;;;4.80;99.90;;;;;;4956679;28;20213;-72
2021/01/18 12:21:54;;;;;;;3.90;3.10;;;4.90;99.90;;;;;;4956508;28;20599;-73
2021/01/18 12:24:20;;;;;;;4.40;3.40;;;5.00;99.90;;;;;;4956447;28;20236;-73
2021/01/18 12:26:50;;;;;;;5.28;3.45;;;5.10;99.90;;;;;;4956358;28;20204;-74
2021/01/18 12:29:17;;;;;;;8.65;3.80;;;5.30;99.90;;;;;;4956313;28;20200;-74
2021/01/18 12:31:45;;;;;;;4.90;4.38;;;5.30;99.90;;;;;;4955441;28;20243;-73
2021/01/18 12:34:12;;;;;;;4.53;3.40;;;5.40;99.90;;;;;;4957233;28;20230;-73
2021/01/18 12:36:38;;;;;;;4.70;3.10;;;5.40;99.90;;;;;;4955946;28;20204;-73
2021/01/18 12:39:06;;;;;;;3.65;3.35;;;5.30;99.90;;;;;;4956902;28;20215;-72
2021/01/18 12:41:33;;;;;;;4.95;3.15;;;5.20;99.90;;;;;;4955193;28;20585;-73
2021/01/18 12:43:59;;;;;;;5.03;3.05;;;5.00;99.90;;;;;;4956052;28;20344;-73
2021/01/18 12:46:26;;;;;;;4.10;3.00;;;4.90;99.90;;;;;;4956161;28;20216;-73
2021/01/18 12:48:53;;;;;;;5.13;2.80;;;4.80;99.90;;;;;;4955833;28;20303;-73
2021/01/18 12:51:19;;;;;;;3.35;2.92;;;4.80;99.90;;;;;;4955564;28;20232;-73
2021/01/18 12:53:45;;;;;;;3.42;3.13;;;4.70;99.90;;;;;;4987562;28;20202;-72
2021/01/18 12:56:18;;;;;;;5.00;3.22;;;4.70;99.90;;;;;;5036452;28;20217;-73
2021/01/18 12:58:45;;;;;;;4.43;3.10;;;4.70;99.90;;;;;;5036375;28;20232;-73
2021/01/18 13:01:11;;;;;;;4.60;3.22;;;4.80;99.90;;;;;;5037360;28;20228;-74
2021/01/18 13:03:37;;;;;;;4.55;3.33;;;4.90;99.90;;;;;;5037063;28;20236;-73
2021/01/18 13:06:04;;;;;;;4.30;3.20;;;4.90;99.90;;;;;;5037303;28;20225;-73
2021/01/18 13:08:31;;;;;;;4.55;3.22;;;4.90;99.90;;;;;;5037531;28;20210;-74
2021/01/18 13:11:02;;;;;;;3.40;2.90;;;4.90;99.90;;;;;;5036430;28;20205;-72
2021/01/18 13:13:28;;;;;;;5.85;3.22;;;4.80;99.90;;;;;;5037503;28;20206;-73
2021/01/18 13:15:54;;;;;;;5.18;3.78;;;4.80;99.90;;;;;;5037994;28;20225;-72
2021/01/18 13:18:20;;;;;;;5.45;3.65;;;4.80;99.90;;;;;;5006109;28;20205;-72
2021/01/18 13:20:47;;;;;;;7.55;3.38;;;4.60;99.90;;;;;;5014527;28;20230;-73
2021/01/18 13:23:14;;;;;;;4.82;3.35;;;4.50;99.90;;;;;;5037863;28;20285;-73